Time;durP1;ratioP1;P1;durP2;ratioP2;P2;SDS_P1;SDS_P2;PMS_P1;PMS_P2;Temp;Humidity;BMP_temperature;BMP_pressure;BME280_temperature;BME280_humidity;BME280_pressure;Samples;Min_cycle;Max_cycle;Signal;HPM_P1;HPM_P2
2022/05/29 00:00:14;;;;;;;;;;;;;;;-144.99;100.00;52423.63;4954687;28;20477;-72
2022/05/29 00:02:40;;;;;;;;;;;;;;;-144.99;100.00;52374.72;4959913;28;19988;-72
2022/05/29 00:05:08;;;;;;;;;;;;;;;-144.99;100.00;52419.56;4959485;28;19971;-72
2022/05/29 00:07:36;;;;;;;;;;;;;;;-144.99;100.00;52421.59;4967593;28;20343;-72
2022/05/29 00:10:04;;;;;;;;;;;;;;;-144.99;100.00;52409.38;4967650;28;19999;-72
2022/05/29 00:12:31;;;;;;;;;;;;;;;-144.99;100.00;52423.63;4962868;28;19967;-72
2022/05/29 00:14:57;;;;;;;;;;;;;;;-144.99;100.00;52423.63;4955937;28;19984;-72
2022/05/29 00:17:24;;;;;;;;;;;;;;;-144.99;100.00;52425.66;4967173;28;19967;-73
2022/05/29 00:19:50;;;;;;;;;;;;;;;-144.99;100.00;52403.25;4968769;28;19989;-72
2022/05/29 00:22:18;;;;;;;;;;;;;;;-144.99;100.00;52407.31;4967260;28;20393;-72
2022/05/29 00:24:47;;;;;;;;;;;;;;;-144.99;100.00;52419.56;4958967;28;19965;-72
2022/05/29 00:27:16;;;;;;;;;;;;;;;-144.99;100.00;52403.25;4977118;28;19966;-74
2022/05/29 00:29:42;;;;;;;;;;;;;;;-144.99;100.00;52374.72;4986213;28;19979;-74
2022/05/29 00:32:09;;;;;;;;;;;;;;;-144.99;100.00;52362.50;4976142;28;20351;-73
2022/05/29 00:34:35;;;;;;;;;;;;;;;-144.99;100.00;52411.41;4964057;28;19968;-73
2022/05/29 00:37:04;;;;;;;;;;;;;;;-144.99;100.00;52419.56;4965280;28;19990;-73
2022/05/29 00:39:30;;;;;;;;;;;;;;;-144.99;100.00;52427.72;4971857;28;19991;-72
2022/05/29 00:41:58;;;;;;;;;;;;;;;-144.99;100.00;52413.44;4958435;28;20456;-73
2022/05/29 00:44:25;;;;;;;;;;;;;;;-144.99;100.00;52350.25;4955719;28;19971;-72
2022/05/29 00:46:53;;;;;;;;;;;;;;;-144.99;100.00;52431.78;4964335;28;19978;-72
2022/05/29 00:49:20;;;;;;;;;;;;;;;-144.99;100.00;52413.44;4960745;28;19996;-73
2022/05/29 00:51:49;;;;;;;;;;;;;;;-144.99;100.00;52407.31;4961338;28;19978;-73
2022/05/29 00:54:16;;;;;;;;;;;;;;;-144.99;100.00;52391.03;4962341;28;20015;-73
2022/05/29 00:56:42;;;;;;;;;;;;;;;-144.99;100.00;52403.25;4967561;28;19963;-73
2022/05/29 00:59:13;;;;;;;;;;;;;;;-144.99;100.00;52362.50;4967344;28;19989;-72
2022/05/29 01:01:40;;;;;;;;;;;;;;;-144.99;100.00;52415.47;4959110;28;20487;-72
2022/05/29 01:04:07;;;;;;;;;;;;;;;-144.99;100.00;52399.19;4967928;28;20042;-73
2022/05/29 01:06:34;;;;;;;;;;;;;;;-144.99;100.00;52366.56;4968878;28;19973;-71
2022/05/29 01:09:01;;;;;;;;;;;;;;;-144.99;100.00;52386.94;4968781;28;20002;-72
2022/05/29 01:11:32;;;;;;;;;;;;;;;-144.99;100.00;52419.56;4960426;28;20113;-72
2022/05/29 01:14:04;;;;;;;;;;;;;;;-144.99;100.00;52419.56;4972943;28;20351;-72
2022/05/29 01:16:36;;;;;;;;;;;;;;;-144.99;100.00;52415.47;4963586;28;19971;-72
2022/05/29 01:19:13;;;;;;;;;;;;;;;-144.99;100.00;52415.47;4954349;28;19989;-73
2022/05/29 01:21:50;;;;;;;;;;;;;;;-144.99;100.00;52413.44;4968877;28;19985;-73
2022/05/29 01:24:27;;;;;;;;;;;;;;;-144.99;100.00;52439.94;4972486;28;20420;-72
2022/05/29 01:27:05;;;;;;;;;;;;;;;-144.99;100.00;52407.31;4960885;28;19961;-73
2022/05/29 01:29:38;;;;;;;;;;;;;;;-144.99;100.00;52382.88;4973791;28;20607;-74
2022/05/29 01:32:07;;;;;;;;;;;;;;;-144.99;100.00;52386.94;4961868;28;20251;-71
2022/05/29 01:34:35;;;;;;;;;;;;;;;-144.99;100.00;52439.94;4960935;28;19978;-71
2022/05/29 01:37:08;;;;;;;;;;;;;;;-144.99;100.00;52419.56;4971593;28;19971;-71
2022/05/29 01:39:37;;;;;;;;;;;;;;;-144.99;100.00;52399.19;4960674;28;20486;-71
2022/05/29 01:42:07;;;;;;;;;;;;;;;-144.99;100.00;52417.53;4957558;28;19992;-70
2022/05/29 01:44:38;;;;;;;;;;;;;;;-144.99;100.00;52423.63;4971820;28;20054;-71
2022/05/29 01:47:08;;;;;;;;;;;;;;;-144.99;100.00;52401.22;4968750;28;19973;-71
2022/05/29 01:49:37;;;;;;;;;;;;;;;-144.99;100.00;52370.63;4972420;28;19991;-72
2022/05/29 01:52:06;;;;;;;;;;;;;;;-144.99;100.00;52403.25;4961654;28;19982;-71
2022/05/29 01:54:37;;;;;;;;;;;;;;;-144.99;100.00;52382.88;4968862;28;19970;-73
2022/05/29 01:57:06;;;;;;;;;;;;;;;-144.99;100.00;52395.09;4966895;28;20054;-73
2022/05/29 01:59:36;;;;;;;;;;;;;;;-144.99;100.00;52397.13;4967746;28;19988;-74
2022/05/29 02:02:06;;;;;;;;;;;;;;;-144.99;100.00;52403.25;4970985;28;19996;-73
2022/05/29 02:04:34;;;;;;;;;;;;;;;-144.99;100.00;52439.94;4964562;28;19978;-73
2022/05/29 02:09:51;;;;;;;;;;;;;;;-144.99;100.00;52431.78;4964263;28;19998;-73
2022/05/29 02:12:20;;;;;;;;;;;;;;;-144.99;100.00;52395.09;4959723;28;20405;-72
2022/05/29 02:14:50;;;;;;;;;;;;;;;-144.99;100.00;52378.78;4968585;28;19983;-71
2022/05/29 02:17:21;;;;;;;;;;;;;;;-144.99;100.00;52382.88;4961605;28;19984;-72
2022/05/29 02:19:51;;;;;;;;;;;;;;;-144.99;100.00;52423.63;4967395;28;20093;-72
2022/05/29 02:22:19;;;;;;;;;;;;;;;-144.99;100.00;52411.41;4967315;28;19997;-72
2022/05/29 02:24:47;;;;;;;;;;;;;;;-144.99;100.00;52415.47;4965741;28;20068;-72
2022/05/29 02:27:16;;;;;;;;;;;;;;;-144.99;100.00;52386.94;4972537;28;19965;-71
2022/05/29 02:29:43;;;;;;;;;;;;;;;-144.99;100.00;52391.03;4967016;28;20093;-71
2022/05/29 02:32:14;;;;;;;;;;;;;;;-144.99;100.00;52362.50;4954905;28;20004;-72
2022/05/29 02:34:46;;;;;;;;;;;;;;;-144.99;100.00;52374.72;4986236;28;19963;-72
2022/05/29 02:37:16;;;;;;;;;;;;;;;-144.99;100.00;52419.56;4983125;28;19976;-72
2022/05/29 02:39:47;;;;;;;;;;;;;;;-144.99;100.00;52407.31;4976254;28;20416;-72
2022/05/29 02:42:19;;;;;;;;;;;;;;;-144.99;100.00;52395.09;4981008;28;20707;-72
2022/05/29 02:44:48;;;;;;;;;;;;;;;-144.99;100.00;52409.38;4967447;28;19995;-72
2022/05/29 02:47:23;;;;;;;;;;;;;;;-144.99;100.00;52419.56;4978826;28;19986;-72
2022/05/29 02:49:55;;;;;;;;;;;;;;;-144.99;100.00;52429.75;4977556;28;20019;-72
2022/05/29 02:52:21;;;;;;;;;;;;;;;-144.99;100.00;52407.31;4976306;28;20121;-73
2022/05/29 02:54:48;;;;;;;;;;;;;;;-144.99;100.00;52397.13;4984053;28;19998;-73
2022/05/29 02:57:15;;;;;;;;;;;;;;;-144.99;100.00;52419.56;4978443;28;19983;-73
2022/05/29 02:59:43;;;;;;;;;;;;;;;-144.99;100.00;52397.13;4976818;28;20469;-73
2022/05/29 03:02:12;;;;;;;;;;;;;;;-144.99;100.00;52407.31;4965399;28;19990;-73
2022/05/29 03:04:43;;;;;;;;;;;;;;;-144.99;100.00;52391.03;4969603;28;19969;-73
2022/05/29 03:07:17;;;;;;;;;;;;;;;-144.99;100.00;52415.47;4966388;28;20336;-73
2022/05/29 03:09:45;;;;;;;;;;;;;;;-144.99;100.00;52413.44;4973725;28;20006;-73
2022/05/29 03:12:17;;;;;;;;;;;;;;;-144.99;100.00;52391.03;4981634;28;20051;-73
2022/05/29 03:14:47;;;;;;;;;;;;;;;-144.99;100.00;52391.03;4968691;28;20194;-72
2022/05/29 03:17:16;;;;;;;;;;;;;;;-144.99;100.00;52403.25;4970984;28;19959;-73
2022/05/29 03:19:49;;;;;;;;;;;;;;;-144.99;100.00;52391.03;4971804;28;19996;-72
2022/05/29 03:22:21;;;;;;;;;;;;;;;-144.99;100.00;52448.09;4974090;23;19988;-77
2022/05/29 03:24:52;;;;;;;;;;;;;;;-144.99;100.00;52427.72;4939200;29;20376;-76
2022/05/29 03:27:22;;;;;;;;;;;;;;;-144.99;100.00;52395.09;4942763;29;20008;-77
2022/05/29 03:29:50;;;;;;;;;;;;;;;-144.99;100.00;52378.78;4945485;28;19974;-75
2022/05/29 03:32:16;;;;;;;;;;;;;;;-144.99;100.00;52419.56;4943795;29;20048;-77
2022/05/29 03:34:43;;;;;;;;;;;;;;;-144.99;100.00;52427.72;4948176;28;19965;-77
2022/05/29 03:37:09;;;;;;;;;;;;;;;-144.99;100.00;52403.25;4949550;28;20429;-74
2022/05/29 03:39:37;;;;;;;;;;;;;;;-144.99;100.00;52403.25;4949560;28;19976;-75
2022/05/29 03:42:03;;;;;;;;;;;;;;;-144.99;100.00;52419.56;4951727;28;19990;-76
2022/05/29 03:44:30;;;;;;;;;;;;;;;-144.99;100.00;52380.84;4949376;28;19980;-76
2022/05/29 03:46:56;;;;;;;;;;;;;;;-144.99;100.00;52386.94;4946637;28;19977;-76
2022/05/29 03:49:23;;;;;;;;;;;;;;;-144.99;100.00;52382.88;4949051;29;19964;-78
2022/05/29 03:51:49;;;;;;;;;;;;;;;-144.99;100.00;52362.50;4943480;29;20005;-77
2022/05/29 03:54:16;;;;;;;;;;;;;;;-144.99;100.00;52358.41;4949741;29;19975;-77
2022/05/29 03:56:44;;;;;;;;;;;;;;;-144.99;100.00;52431.78;4948690;28;19975;-73
2022/05/29 03:59:10;;;;;;;;;;;;;;;-144.99;100.00;52419.56;4948168;28;19978;-76
2022/05/29 04:01:37;;;;;;;;;;;;;;;-144.99;100.00;52386.94;4942214;29;19994;-77
2022/05/29 04:04:03;;;;;;;;;;;;;;;-144.99;100.00;52419.56;4948820;29;19993;-75
2022/05/29 04:06:30;;;;;;;;;;;;;;;-144.99;100.00;52415.47;4948569;29;19969;-76
2022/05/29 04:14:27;;;;;;;;;;;;;;;-144.99;100.00;52403.25;4948358;29;19980;-76
2022/05/29 04:16:53;;;;;;;;;;;;;;;-144.99;100.00;52411.41;4947066;29;19967;-73
2022/05/29 04:19:19;;;;;;;;;;;;;;;-144.99;100.00;52407.31;4948352;28;19995;-75
2022/05/29 04:21:46;;;;;;;;;;;;;;;-144.99;100.00;52395.09;4948140;28;19997;-73
2022/05/29 04:24:12;;;;;;;;;;;;;;;-144.99;100.00;52346.19;4948084;29;19984;-73
2022/05/29 04:26:38;;;;;;;;;;;;;;;-144.99;100.00;52423.63;4947949;29;19969;-73
2022/05/29 04:29:05;;;;;;;;;;;;;;;-144.99;100.00;52407.31;4953546;28;19970;-73
2022/05/29 04:31:33;;;;;;;;;;;;;;;-144.99;100.00;52403.25;4951058;29;20328;-73
2022/05/29 04:33:59;;;;;;;;;;;;;;;-144.99;100.00;52403.25;4948707;29;20348;-72
2022/05/29 04:36:25;;;;;;;;;;;;;;;-144.99;100.00;52403.25;4948643;28;20249;-75
2022/05/29 04:38:52;;;;;;;;;;;;;;;-144.99;100.00;52370.63;4950274;28;19973;-75
2022/05/29 04:41:24;;;;;;;;;;;;;;;-144.99;100.00;52415.47;4952763;28;19993;-75
2022/05/29 04:43:51;;;;;;;;;;;;;;;-144.99;100.00;52399.19;4947740;29;20046;-74
2022/05/29 04:46:17;;;;;;;;;;;;;;;-144.99;100.00;52366.56;4947910;28;19954;-77
2022/05/29 04:48:45;;;;;;;;;;;;;;;-144.99;100.00;52444.03;4947707;28;19976;-74
2022/05/29 04:51:11;;;;;;;;;;;;;;;-144.99;100.00;52391.03;4942469;29;19967;-72
2022/05/29 04:53:37;;;;;;;;;;;;;;;-144.99;100.00;52386.94;4947307;28;19979;-73
2022/05/29 04:56:04;;;;;;;;;;;;;;;-144.99;100.00;52388.97;4948482;29;20080;-74
2022/05/29 04:58:31;;;;;;;;;;;;;;;-144.99;100.00;52366.56;4948833;29;19977;-75
2022/05/29 05:00:57;;;;;;;;;;;;;;;-144.99;100.00;52393.06;4953810;28;20044;-72
2022/05/29 05:03:24;;;;;;;;;;;;;;;-144.99;100.00;52372.69;4947775;29;20086;-73
2022/05/29 05:05:52;;;;;;;;;;;;;;;-144.99;100.00;52391.03;4948613;29;19980;-71
2022/05/29 05:08:18;;;;;;;;;;;;;;;-144.99;100.00;52382.88;4947952;29;19979;-74
2022/05/29 05:10:45;;;;;;;;;;;;;;;-144.99;100.00;52403.25;4958568;28;20005;-77
2022/05/29 05:13:11;;;;;;;;;;;;;;;-144.99;100.00;52399.19;4960735;29;19987;-72
2022/05/29 05:15:37;;;;;;;;;;;;;;;-144.99;100.00;52415.47;4946965;29;19986;-73
2022/05/29 05:18:04;;;;;;;;;;;;;;;-144.99;100.00;52395.09;4948843;29;19978;-73
2022/05/29 05:20:32;;;;;;;;;;;;;;;-144.99;100.00;52415.47;4952271;28;20346;-73
2022/05/29 05:23:00;;;;;;;;;;;;;;;-144.99;100.00;52378.78;4951889;28;20703;-72
2022/05/29 05:25:27;;;;;;;;;;;;;;;-144.99;100.00;52427.72;4950464;29;19980;-72
2022/05/29 05:27:53;;;;;;;;;;;;;;;-144.99;100.00;52427.72;4948479;29;19980;-73
2022/05/29 05:30:20;;;;;;;;;;;;;;;-144.99;100.00;52427.72;4948729;28;20246;-76
2022/05/29 05:32:46;;;;;;;;;;;;;;;-144.99;100.00;52362.50;4947668;28;20336;-75
2022/05/29 05:35:12;;;;;;;;;;;;;;;-144.99;100.00;52362.50;4948697;29;19974;-76
2022/05/29 05:37:39;;;;;;;;;;;;;;;-144.99;100.00;52376.75;4947704;29;19973;-74
2022/05/29 05:40:09;;;;;;;;;;;;;;;-144.99;100.00;52382.88;4948155;29;20070;-76
2022/05/29 05:42:36;;;;;;;;;;;;;;;-144.99;100.00;52395.09;4949421;28;19988;-74
2022/05/29 05:45:03;;;;;;;;;;;;;;;-144.99;100.00;52376.75;4946454;29;19971;-75
2022/05/29 05:47:29;;;;;;;;;;;;;;;-144.99;100.00;52378.78;4948148;29;20410;-76
2022/05/29 05:49:55;;;;;;;;;;;;;;;-144.99;100.00;52413.44;4948240;29;19977;-75
2022/05/29 05:52:22;;;;;;;;;;;;;;;-144.99;100.00;52378.78;4946941;28;20350;-75
2022/05/29 05:54:48;;;;;;;;;;;;;;;-144.99;100.00;52391.03;4964136;29;20086;-78
2022/05/29 05:57:17;;;;;;;;;;;;;;;-144.99;100.00;52403.25;4953723;28;19981;-75
2022/05/29 05:59:43;;;;;;;;;;;;;;;-144.99;100.00;52399.19;4950178;29;19981;-75
2022/05/29 06:02:10;;;;;;;;;;;;;;;-144.99;100.00;52374.72;4951500;28;19993;-75
2022/05/29 06:04:37;;;;;;;;;;;;;;;-144.99;100.00;52415.47;4950854;29;19999;-77
2022/05/29 06:07:03;;;;;;;;;;;;;;;-144.99;100.00;52391.03;4952060;29;19970;-75
2022/05/29 06:09:29;;;;;;;;;;;;;;;-144.99;100.00;52395.09;4951402;28;19972;-78
2022/05/29 06:11:56;;;;;;;;;;;;;;;-144.99;100.00;52419.56;4953469;28;20019;-75
2022/05/29 06:14:23;;;;;;;;;;;;;;;-144.99;100.00;52399.19;4952451;28;19966;-75
2022/05/29 06:16:50;;;;;;;;;;;;;;;-144.99;100.00;52395.09;4950931;29;19980;-76
2022/05/29 06:19:16;;;;;;;;;;;;;;;-144.99;100.00;52391.03;4951241;29;19955;-75
2022/05/29 06:21:43;;;;;;;;;;;;;;;-144.99;100.00;52386.94;4951234;29;19989;-76
2022/05/29 06:24:09;;;;;;;;;;;;;;;-144.99;100.00;52382.88;4948868;28;19991;-77
2022/05/29 06:26:35;;;;;;;;;;;;;;;-144.99;100.00;52421.59;4951589;29;19969;-74
2022/05/29 06:29:02;;;;;;;;;;;;;;;-144.99;100.00;52435.88;4952570;28;19995;-75
2022/05/29 06:31:29;;;;;;;;;;;;;;;-144.99;100.00;52388.97;4949564;28;20101;-73
2022/05/29 06:33:56;;;;;;;;;;;;;;;-144.99;100.00;52364.53;4945161;28;19979;-75
2022/05/29 06:36:24;;;;;;;;;;;;;;;-144.99;100.00;52376.75;4950552;29;19980;-77
2022/05/29 06:38:50;;;;;;;;;;;;;;;-144.99;100.00;52409.38;4950496;29;19988;-77
2022/05/29 06:41:18;;;;;;;;;;;;;;;-144.99;100.00;52382.88;4950546;28;20391;-71
2022/05/29 06:43:45;;;;;;;;;;;;;;;-144.99;100.00;52372.69;4950260;28;19966;-77
2022/05/29 06:46:11;;;;;;;;;;;;;;;-144.99;100.00;52407.31;4949152;29;19977;-78
2022/05/29 06:48:40;;;;;;;;;;;;;;;-144.99;100.00;52366.56;4950553;29;19983;-77
2022/05/29 06:51:08;;;;;;;;;;;;;;;-144.99;100.00;52378.78;4952364;28;20378;-77
2022/05/29 06:53:34;;;;;;;;;;;;;;;-144.99;100.00;52366.56;4949719;29;19983;-74
2022/05/29 06:56:01;;;;;;;;;;;;;;;-144.99;100.00;52386.94;4950168;29;19990;-77
2022/05/29 06:58:27;;;;;;;;;;;;;;;-144.99;100.00;52391.03;4950862;29;19972;-75
2022/05/29 07:09:07;;;;;;;;;;;;;;;-144.99;100.00;52362.50;4947935;28;20030;-73
2022/05/29 07:11:35;;;;;;;;;;;;;;;-144.99;100.00;52378.78;4951775;28;19994;-77
2022/05/29 07:14:03;;;;;;;;;;;;;;;-144.99;100.00;52378.78;4950516;29;20030;-74
2022/05/29 07:16:29;;;;;;;;;;;;;;;-144.99;100.00;52395.09;4949271;29;20431;-73
2022/05/29 07:18:57;;;;;;;;;;;;;;;-144.99;100.00;52354.34;4957595;29;19973;-76
2022/05/29 07:21:24;;;;;;;;;;;;;;;-144.99;100.00;52378.78;4959163;28;20077;-75
2022/05/29 07:23:50;;;;;;;;;;;;;;;-144.99;100.00;52382.88;4949904;29;20375;-75
2022/05/29 07:26:17;;;;;;;;;;;;;;;-144.99;100.00;52391.03;4950307;29;20414;-78
2022/05/29 07:28:43;;;;;;;;;;;;;;;-144.99;100.00;52366.56;4951434;28;19972;-76
2022/05/29 07:31:10;;;;;;;;;;;;;;;-144.99;100.00;52395.09;4945480;28;19996;-74
2022/05/29 07:33:38;;;;;;;;;;;;;;;-144.99;100.00;52403.25;4949758;29;19976;-78
2022/05/29 07:36:09;;;;;;;;;;;;;;;-144.99;100.00;52403.25;4949786;29;20038;-77
2022/05/29 07:38:35;;;;;;;;;;;;;;;-144.99;100.00;52403.25;4950372;28;19973;-76
2022/05/29 07:43:18;;;;;;;;;;;;;;;-144.99;100.00;52388.97;4947452;28;20461;-76
2022/05/29 07:43:47;;;;;;;;;;;;;;;-144.99;100.00;52354.34;4948299;29;20539;-77
2022/05/29 07:46:13;;;;;;;;;;;;;;;-144.99;100.00;52399.19;4947813;29;19979;-76
2022/05/29 07:48:40;;;;;;;;;;;;;;;-144.99;100.00;52386.94;4949471;29;19977;-77
2022/05/29 07:51:07;;;;;;;;;;;;;;;-144.99;100.00;52364.53;4953646;28;20106;-78
2022/05/29 07:53:34;;;;;;;;;;;;;;;-144.99;100.00;52370.63;4951816;29;19979;-76
2022/05/29 07:56:01;;;;;;;;;;;;;;;-144.99;100.00;52399.19;4953290;29;19977;-80
2022/05/29 07:58:28;;;;;;;;;;;;;;;-144.99;100.00;52382.88;4951437;28;19978;-77
2022/05/29 08:00:54;;;;;;;;;;;;;;;-144.99;100.00;52362.50;4959282;28;19981;-79
2022/05/29 08:03:22;;;;;;;;;;;;;;;-144.99;100.00;52366.56;4966216;28;19999;-81
2022/05/29 08:05:49;;;;;;;;;;;;;;;-144.99;100.00;52338.03;4955347;28;19980;-75
2022/05/29 08:08:16;;;;;;;;;;;;;;;-144.99;100.00;52331.91;4950078;29;20010;-75
2022/05/29 08:10:43;;;;;;;;;;;;;;;-144.99;100.00;52356.38;4949452;28;19989;-76
2022/05/29 08:13:12;;;;;;;;;;;;;;;-144.99;100.00;52331.91;4949411;29;20352;-78
2022/05/29 08:15:38;;;;;;;;;;;;;;;-144.99;100.00;52342.09;4948610;29;20348;-76
2022/05/29 08:18:05;;;;;;;;;;;;;;;-144.99;100.00;52346.19;4949231;29;20193;-75
2022/05/29 08:20:32;;;;;;;;;;;;;;;-144.99;100.00;52321.72;4951495;28;20445;-73
2022/05/29 08:22:58;;;;;;;;;;;;;;;-144.99;100.00;52313.56;4949075;29;20452;-74
2022/05/29 08:30:54;;;;;;;;;;;;;;;-144.99;100.00;52297.25;4957160;28;20382;-76
2022/05/29 08:33:21;;;;;;;;;;;;;;;-144.99;100.00;52352.28;4951054;29;20005;-76
2022/05/29 08:35:49;;;;;;;;;;;;;;;-144.99;100.00;52329.88;4951938;29;19973;-79
2022/05/29 08:38:17;;;;;;;;;;;;;;;-144.99;100.00;52309.50;4955831;29;19969;-80
2022/05/29 08:40:45;;;;;;;;;;;;;;;-144.99;100.00;52317.66;4957926;28;20460;-78
2022/05/29 08:43:14;;;;;;;;;;;;;;;-144.99;100.00;52358.41;4957630;28;19978;-80
2022/05/29 08:45:40;;;;;;;;;;;;;;;-144.99;100.00;52378.78;4970034;29;19957;-76
2022/05/29 08:48:07;;;;;;;;;;;;;;;-144.99;100.00;52362.50;4960581;28;19986;-75
2022/05/29 08:50:37;;;;;;;;;;;;;;;-144.99;100.00;52350.25;4949745;28;20058;-77
2022/05/29 08:53:05;;;;;;;;;;;;;;;-144.99;100.00;52374.72;4949531;29;19980;-75
2022/05/29 08:55:35;;;;;;;;;;;;;;;-144.99;100.00;52342.09;4951649;29;19967;-77
2022/05/29 08:58:07;;;;;;;;;;;;;;;-144.99;100.00;52333.94;4960081;29;20338;-77
2022/05/29 09:00:42;;;;;;;;;;;;;;;-144.99;100.00;52327.84;4952592;28;19991;-76
2022/05/29 09:03:21;;;;;;;;;;;;;;;-144.99;100.00;52329.88;4952282;28;19966;-76
2022/05/29 09:05:51;;;;;;;;;;;;;;;-144.99;100.00;52331.91;4950801;29;19966;-77
2022/05/29 09:08:20;;;;;;;;;;;;;;;-144.99;100.00;52331.91;4950935;29;20058;-77
2022/05/29 09:10:48;;;;;;;;;;;;;;;-144.99;98.42;52354.34;4950265;28;20174;-79
2022/05/29 09:13:18;;;;;;;;;;;;;;;-144.99;99.13;52362.50;4947387;28;20301;-77
2022/05/29 09:15:47;;;;;;;;;;;;;;;-144.99;97.99;52329.88;4942984;28;19970;-78
2022/05/29 09:18:16;;;;;;;;;;;;;;;-144.99;98.65;52317.66;4945354;28;19965;-76
2022/05/29 09:20:46;;;;;;;;;;;;;;;-144.99;98.16;52354.34;4940609;28;19974;-77
2022/05/29 09:23:15;;;;;;;;;;;;;;;-144.99;97.34;52368.59;4955599;23;19978;-73
2022/05/29 09:25:43;;;;;;;;;;;;;;;-144.99;94.87;52338.03;4945099;28;19976;-72
2022/05/29 09:28:12;;;;;;;;;;;;;;;-144.99;95.19;52354.34;4948502;28;19973;-73
2022/05/29 09:30:40;;;;;;;;;;;;;;;-144.99;94.56;52342.09;4952844;28;20442;-73
2022/05/29 09:33:13;;;;;;;;;;;;;;;-144.99;93.55;52327.84;4953596;28;20021;-73
2022/05/29 09:35:42;;;;;;;;;;;;;;;-144.99;91.81;52317.66;4952074;28;19953;-73
2022/05/29 09:38:12;;;;;;;;;;;;;;;-144.99;88.72;52329.88;4956676;28;19960;-73
2022/05/29 09:40:40;;;;;;;;;;;;;;;-144.99;88.69;52305.41;4947906;28;20435;-74
2022/05/29 09:43:17;;;;;;;;;;;;;;;-144.99;85.72;52317.66;4951036;29;19983;-73
2022/05/29 09:45:45;;;;;;;;;;;;;;;-144.99;85.64;52305.41;4943779;28;19967;-73
2022/05/29 09:51:14;;;;;;;;;;;;;;;-144.99;82.23;52333.94;4949078;29;19962;-74
2022/05/29 09:53:44;;;;;;;;;;;;;;;-144.99;80.11;52350.25;4946767;29;19987;-74
2022/05/29 09:56:12;;;;;;;;;;;;;;;-144.99;81.27;52340.06;4944100;29;20313;-73
2022/05/29 09:58:44;;;;;;;;;;;;;;;-144.99;81.25;52350.25;4257422;28;10000796;-71
2022/05/29 10:01:12;;;;;;;;;;;;;;;-144.99;80.45;52325.81;4945550;29;19962;-74
2022/05/29 10:03:50;;;;;;;;;;;;;;;-144.99;81.33;52313.56;4941617;29;20490;-72
2022/05/29 10:06:18;;;;;;;;;;;;;;;-144.99;80.24;52325.81;4940086;28;20435;-74
2022/05/29 10:08:45;;;;;;;;;;;;;;;-144.99;79.67;52317.66;4947342;29;19962;-73
2022/05/29 10:11:15;;;;;;;;;;;;;;;-144.99;80.02;52346.19;4946757;29;20164;-73
2022/05/29 10:13:42;;;;;;;;;;;;;;;-144.99;79.83;52350.25;4949296;28;19963;-73
2022/05/29 10:16:09;;;;;;;;;;;;;;;-144.99;80.46;52354.34;4940836;29;19965;-72
2022/05/29 10:18:38;;;;;;;;;;;;;;;-144.99;81.46;52362.50;4945566;28;20246;-72
2022/05/29 10:21:07;;;;;;;;;;;;;;;-144.99;82.76;52305.41;4942494;29;20421;-73
2022/05/29 10:23:36;;;;;;;;;;;;;;;-144.99;82.83;52327.84;4937585;29;19975;-73
2022/05/29 10:26:05;;;;;;;;;;;;;;;-144.99;83.51;52317.66;4943764;29;20101;-73
2022/05/29 10:28:35;;;;;;;;;;;;;;;-144.99;83.85;52301.34;4939387;29;20105;-73
2022/05/29 10:31:03;;;;;;;;;;;;;;;-144.99;83.25;52336.00;4942449;29;19952;-72
2022/05/29 10:33:31;;;;;;;;;;;;;;;-144.99;80.94;52329.88;4943203;29;19969;-73
2022/05/29 10:36:10;;;;;;;;;;;;;;;-144.99;81.13;52329.88;4941525;29;19982;-73
2022/05/29 10:38:36;;;;;;;;;;;;;;;-144.99;77.71;52317.66;4942894;29;19963;-73
2022/05/29 10:41:04;;;;;;;;;;;;;;;-144.99;76.74;52325.81;4943537;29;20085;-72
2022/05/29 10:43:35;;;;;;;;;;;;;;;-144.99;77.18;52317.66;4930376;28;20513;-73
2022/05/29 10:46:04;;;;;;;;;;;;;;;-144.99;77.25;52301.34;4943718;28;19975;-72
2022/05/29 10:48:48;;;;;;;;;;;;;;;-144.99;75.01;52309.50;4942010;29;19968;-73
2022/05/29 10:51:21;;;;;;;;;;;;;;;-144.99;74.85;52297.25;4943483;29;19968;-73
2022/05/29 10:54:02;;;;;;;;;;;;;;;-144.99;73.47;52338.03;4949624;29;19980;-73
2022/05/29 10:56:34;;;;;;;;;;;;;;;-144.99;73.29;52350.25;4945655;29;19953;-73
2022/05/29 10:59:19;;;;;;;;;;;;;;;-144.99;74.03;52354.34;4941779;29;20056;-72
2022/05/29 11:04:40;;;;;;;;;;;;;;;-144.99;74.67;52368.59;4946113;29;20024;-73
2022/05/29 11:07:22;;;;;;;;;;;;;;;-144.99;77.26;52338.03;4943435;29;19960;-73
2022/05/29 11:09:56;;;;;;;;;;;;;;;-144.99;80.11;52350.25;4944480;28;19957;-73
2022/05/29 11:12:26;;;;;;;;;;;;;;;-144.99;82.88;52360.44;4940829;29;19973;-73
2022/05/29 11:14:59;;;;;;;;;;;;;;;-144.99;85.31;52342.09;4937904;29;20037;-72
2022/05/29 11:17:31;;;;;;;;;;;;;;;-144.99;86.76;52370.63;4941365;29;20941;-73
2022/05/29 11:20:03;;;;;;;;;;;;;;;-144.99;87.95;52378.78;4939581;29;19968;-72
2022/05/29 11:22:36;;;;;;;;;;;;;;;-144.99;88.83;52382.88;4941207;29;20029;-72
2022/05/29 11:25:15;;;;;;;;;;;;;;;-144.99;88.58;52366.56;4939343;29;19985;-72
2022/05/29 11:27:47;;;;;;;;;;;;;;;-144.99;87.44;52362.50;4939252;28;20073;-71
2022/05/29 11:30:18;;;;;;;;;;;;;;;-144.99;88.16;52366.56;4943858;29;20075;-72
2022/05/29 11:33:02;;;;;;;;;;;;;;;-144.99;87.29;52374.72;4943555;29;19983;-71
2022/05/29 11:35:36;;;;;;;;;;;;;;;-144.99;86.99;52346.19;4945323;29;19958;-72
2022/05/29 11:38:14;;;;;;;;;;;;;;;-144.99;87.68;52350.25;4946267;29;20590;-73
2022/05/29 11:40:44;;;;;;;;;;;;;;;-144.99;87.30;52362.50;4954500;28;19966;-73
2022/05/29 11:43:15;;;;;;;;;;;;;;;-144.99;87.88;52352.28;4930885;29;19977;-73
2022/05/29 11:51:20;;;;;;;;;;;;;;;-144.99;88.07;52350.25;4945317;29;20041;-74
2022/05/29 11:53:49;;;;;;;;;;;;;;;-144.99;88.11;52366.56;4942922;28;19991;-74
2022/05/29 11:56:20;;;;;;;;;;;;;;;-144.99;87.80;52342.09;4941487;28;19977;-73
2022/05/29 11:58:48;;;;;;;;;;;;;;;-144.99;87.11;52338.03;4938845;29;20521;-72
2022/05/29 12:01:17;;;;;;;;;;;;;;;-144.99;85.78;52329.88;4939052;29;19966;-74
2022/05/29 12:03:46;;;;;;;;;;;;;;;-144.99;84.77;52319.69;4940087;29;19985;-73
2022/05/29 12:06:15;;;;;;;;;;;;;;;-144.99;83.69;52360.44;4939914;29;19983;-72
2022/05/29 12:08:47;;;;;;;;;;;;;;;-144.99;82.07;52325.81;4943231;29;20447;-74
2022/05/29 12:11:23;;;;;;;;;;;;;;;-144.99;82.32;52356.38;4944810;29;20423;-73
2022/05/29 12:13:54;;;;;;;;;;;;;;;-144.99;83.34;52354.34;4936797;29;19984;-72
2022/05/29 12:16:21;;;;;;;;;;;;;;;-144.99;84.20;52346.19;4940882;29;19976;-73
2022/05/29 12:18:50;;;;;;;;;;;;;;;-144.99;83.59;52313.56;4945565;28;19981;-72
2022/05/29 12:21:21;;;;;;;;;;;;;;;-144.99;80.59;52311.53;4936860;29;19988;-72
2022/05/29 12:23:49;;;;;;;;;;;;;;;-144.99;78.79;52321.72;4940429;29;20000;-73
2022/05/29 12:26:19;;;;;;;;;;;;;;;-144.99;78.59;52309.50;4944181;29;19986;-73
2022/05/29 12:28:50;;;;;;;;;;;;;;;-144.99;76.93;52325.81;4933990;29;19972;-72
2022/05/29 12:31:19;;;;;;;;;;;;;;;-144.99;76.58;52276.88;4924756;29;19979;-71
2022/05/29 12:33:46;;;;;;;;;;;;;;;-144.99;74.23;52252.44;4942326;28;20040;-74
2022/05/29 12:36:19;;;;;;;;;;;;;;;-144.99;71.09;52215.75;4943982;29;20017;-73
2022/05/29 12:38:53;;;;;;;;;;;;;;;-144.99;68.50;52227.97;4944908;29;20055;-72
2022/05/29 12:41:37;;;;;;;;;;;;;;;-144.99;64.39;52250.38;4943748;29;19971;-73
2022/05/29 12:44:18;;;;;;;;;;;;;;;-144.99;63.78;52248.34;4943799;29;19997;-73
2022/05/29 12:47:01;;;;;;;;;;;;;;;-144.99;63.42;52264.66;4946058;28;19979;-72
2022/05/29 12:49:45;;;;;;;;;;;;;;;-144.99;64.00;52289.13;4945746;29;19956;-71
2022/05/29 12:52:14;;;;;;;;;;;;;;;-144.99;64.04;52291.16;4947267;29;20024;-73
2022/05/29 12:55:02;;;;;;;;;;;;;;;-144.99;64.95;52293.19;4950139;29;19967;-72
2022/05/29 12:57:39;;;;;;;;;;;;;;;-144.99;66.02;52317.66;4935820;29;19960;-73
2022/05/29 13:00:10;;;;;;;;;;;;;;;-144.99;66.89;52309.50;4927316;29;20484;-73
2022/05/29 13:02:44;;;;;;;;;;;;;;;-144.99;66.98;52305.41;4941414;29;19976;-73